createdAt,value
2022-10-19T00:01:09.079Z,4.30
2022-10-19T00:03:36.061Z,4.63
2022-10-19T00:06:16.302Z,4.30
2022-10-19T00:08:43.693Z,4.40
2022-10-19T00:11:11.288Z,4.03
2022-10-19T00:13:39.067Z,4.33
2022-10-19T00:16:13.399Z,3.90
2022-10-19T00:18:41.164Z,3.77
2022-10-19T00:21:09.291Z,3.67
2022-10-19T00:23:37.308Z,3.90
2022-10-19T00:26:03.994Z,3.47
2022-10-19T00:28:30.910Z,4.43
2022-10-19T00:30:57.590Z,3.67
2022-10-19T00:33:24.178Z,3.37
2022-10-19T00:35:52.058Z,3.70
2022-10-19T00:38:22.509Z,3.20
2022-10-19T00:40:49.544Z,3.40
2022-10-19T00:43:21.497Z,3.30
2022-10-19T00:45:57.920Z,3.37
2022-10-19T00:48:26.727Z,3.37
2022-10-19T00:50:54.788Z,3.50
2022-10-19T00:53:24.644Z,3.10
2022-10-19T00:55:51.428Z,3.07
2022-10-19T00:58:18.066Z,2.97
2022-10-19T01:00:44.797Z,2.80
2022-10-19T01:03:12.045Z,2.80
2022-10-19T01:05:41.296Z,2.90
2022-10-19T01:08:08.972Z,2.70
2022-10-19T01:11:14.238Z,3.60
2022-10-19T01:13:52.349Z,2.97
2022-10-19T01:16:51.469Z,3.07
2022-10-19T01:19:40.132Z,2.60
2022-10-19T01:22:17.336Z,2.40
2022-10-19T01:25:00.498Z,2.03
2022-10-19T01:27:45.417Z,2.33
2022-10-19T01:30:15.168Z,2.00
2022-10-19T01:32:41.643Z,2.30
2022-10-19T01:35:18.164Z,2.60
2022-10-19T01:37:50.137Z,2.07
2022-10-19T01:40:26.994Z,1.70
2022-10-19T01:42:59.628Z,1.93
2022-10-19T01:45:30.603Z,1.83
2022-10-19T01:48:23.556Z,2.13
2022-10-19T01:51:02.475Z,1.83
2022-10-19T01:53:31.538Z,2.03
2022-10-19T01:55:58.977Z,1.70
2022-10-19T01:58:28.162Z,1.73
2022-10-19T02:00:56.130Z,1.77
2022-10-19T02:03:23.601Z,1.80
2022-10-19T02:05:50.828Z,1.77
2022-10-19T02:08:23.258Z,2.00
2022-10-19T02:10:50.193Z,1.57
2022-10-19T02:13:17.024Z,1.70
2022-10-19T02:15:46.493Z,2.17
2022-10-19T02:18:16.151Z,1.80
2022-10-19T02:20:42.782Z,1.63
2022-10-19T02:23:09.711Z,1.80
2022-10-19T02:25:39.113Z,1.90
2022-10-19T02:28:05.890Z,1.87
2022-10-19T02:30:32.616Z,1.60
2022-10-19T02:32:59.307Z,2.03
2022-10-19T02:35:25.978Z,1.63
2022-10-19T02:37:59.933Z,2.10
2022-10-19T02:40:27.623Z,1.67
2022-10-19T02:43:06.301Z,1.80
2022-10-19T02:45:36.746Z,2.00
2022-10-19T02:48:07.775Z,1.80
2022-10-19T02:50:34.543Z,1.70
2022-10-19T02:53:01.299Z,1.80
2022-10-19T02:55:29.298Z,1.90
2022-10-19T02:57:55.984Z,2.13
2022-10-19T03:00:22.667Z,1.60
2022-10-19T03:02:49.313Z,1.87
2022-10-19T03:05:18.260Z,1.93
2022-10-19T03:07:44.805Z,2.07
2022-10-19T03:10:11.386Z,2.00
2022-10-19T03:12:37.958Z,2.23
2022-10-19T03:15:05.186Z,2.20
2022-10-19T03:17:31.967Z,2.00
2022-10-19T03:19:58.788Z,2.20
2022-10-19T03:22:25.352Z,2.00
2022-10-19T03:24:52.037Z,2.30
2022-10-19T03:27:18.615Z,2.60
2022-10-19T03:29:45.203Z,2.30
2022-10-19T03:32:11.810Z,2.33
2022-10-19T03:34:38.370Z,2.10
2022-10-19T03:37:04.956Z,2.20
2022-10-19T03:39:31.616Z,2.70
2022-10-19T03:41:58.223Z,2.30
2022-10-19T03:44:24.828Z,2.47
2022-10-19T03:46:51.442Z,2.20
2022-10-19T03:49:18.106Z,2.90
2022-10-19T03:51:47.668Z,2.23
2022-10-19T03:54:16.291Z,2.30
2022-10-19T03:56:43.382Z,2.40
2022-10-19T03:59:17.346Z,2.20
2022-10-19T04:01:45.294Z,2.63
2022-10-19T04:04:19.309Z,2.33
2022-10-19T04:06:51.127Z,2.33
2022-10-19T04:09:19.878Z,2.83
2022-10-19T04:11:47.248Z,2.50
2022-10-19T04:14:22.822Z,2.43
2022-10-19T04:17:02.606Z,2.30
2022-10-19T04:19:29.241Z,2.93
2022-10-19T04:21:55.810Z,2.50
2022-10-19T04:24:22.900Z,3.00
2022-10-19T04:26:51.570Z,2.97
2022-10-19T04:29:19.679Z,2.70
2022-10-19T04:31:48.187Z,2.80
2022-10-19T04:34:14.838Z,3.00
2022-10-19T04:36:41.431Z,2.70
2022-10-19T04:39:08.405Z,2.80
2022-10-19T04:41:35.445Z,2.30
2022-10-19T04:44:04.041Z,2.83
2022-10-19T04:46:30.848Z,2.57
2022-10-19T04:48:58.077Z,2.90
2022-10-19T04:51:25.454Z,3.00
2022-10-19T04:53:55.566Z,2.40
2022-10-19T04:56:29.116Z,3.33
2022-10-19T04:58:57.457Z,3.00
2022-10-19T05:01:25.475Z,2.90
2022-10-19T05:06:24.441Z,3.33
2022-10-19T05:08:51.501Z,3.00
2022-10-19T05:11:18.915Z,3.20
2022-10-19T05:13:45.702Z,3.40
2022-10-19T05:16:17.902Z,3.77
2022-10-19T05:18:52.510Z,3.33
2022-10-19T05:21:20.853Z,3.50
2022-10-19T05:23:50.531Z,3.20
2022-10-19T05:26:19.150Z,3.40
2022-10-19T05:28:57.009Z,3.27
2022-10-19T05:31:26.373Z,3.00
2022-10-19T05:33:53.270Z,2.30
2022-10-19T05:36:25.311Z,2.73
2022-10-19T05:38:53.526Z,2.50
2022-10-19T05:41:20.850Z,2.60
2022-10-19T05:43:48.017Z,2.80
2022-10-19T05:46:19.465Z,2.60
2022-10-19T05:48:46.877Z,2.23
2022-10-19T05:51:18.972Z,2.27
2022-10-19T05:53:45.849Z,2.20
2022-10-19T05:56:24.341Z,1.83
2022-10-19T05:58:51.601Z,2.70
2022-10-19T06:01:19.173Z,1.90
2022-10-19T06:03:46.904Z,1.70
2022-10-19T06:06:13.654Z,1.93
2022-10-19T06:08:40.346Z,1.70
2022-10-19T06:11:08.085Z,1.50
2022-10-19T06:13:35.346Z,2.00
2022-10-19T06:16:02.015Z,1.77
2022-10-19T06:18:28.648Z,1.80
2022-10-19T06:20:55.532Z,2.00
2022-10-19T06:23:22.102Z,2.40
2022-10-19T06:25:48.702Z,2.07
2022-10-19T06:28:15.374Z,1.97
2022-10-19T06:30:42.132Z,2.63
2022-10-19T06:33:09.048Z,2.57
2022-10-19T06:35:35.971Z,2.20
2022-10-19T06:38:02.585Z,2.20
2022-10-19T06:40:29.208Z,2.20
2022-10-19T06:42:58.723Z,2.00
2022-10-19T06:45:25.387Z,2.00
2022-10-19T06:47:52.076Z,2.03
2022-10-19T06:50:21.407Z,2.20
2022-10-19T06:52:48.106Z,2.20
2022-10-19T06:55:15.060Z,2.07
2022-10-19T06:57:41.671Z,2.10
2022-10-19T07:00:09.087Z,2.57
2022-10-19T07:02:35.830Z,2.17
2022-10-19T07:05:06.032Z,2.20
2022-10-19T07:07:33.067Z,2.13
2022-10-19T07:09:59.803Z,1.90
2022-10-19T07:12:26.361Z,2.00
2022-10-19T07:14:54.360Z,2.03
2022-10-19T07:17:21.316Z,3.00
2022-10-19T07:19:47.935Z,3.00
2022-10-19T07:22:20.335Z,3.00
2022-10-19T07:24:49.790Z,3.30
2022-10-19T07:27:16.449Z,4.20
2022-10-19T07:29:43.101Z,3.77
2022-10-19T07:32:09.807Z,3.40
2022-10-19T07:34:36.412Z,3.30
2022-10-19T07:37:03.050Z,4.33
2022-10-19T07:39:29.697Z,3.60
2022-10-19T07:41:56.238Z,3.80
2022-10-19T07:44:22.870Z,2.97
2022-10-19T07:46:50.280Z,3.80
2022-10-19T07:49:18.974Z,3.63
2022-10-19T07:51:46.758Z,4.03
2022-10-19T07:54:13.794Z,4.00
2022-10-19T07:56:40.979Z,3.90
2022-10-19T07:59:07.734Z,3.87
2022-10-19T08:01:38.109Z,3.70
2022-10-19T08:06:51.507Z,3.90
2022-10-19T08:09:40.111Z,3.70
2022-10-19T08:12:06.065Z,3.40
2022-10-19T08:14:32.787Z,4.37
2022-10-19T08:17:00.100Z,3.93
2022-10-19T08:19:26.744Z,4.63
2022-10-19T08:21:53.384Z,4.40
2022-10-19T08:24:20.731Z,5.03
2022-10-19T08:26:47.502Z,4.60
2022-10-19T08:29:16.320Z,4.43
2022-10-19T08:31:44.293Z,4.60
2022-10-19T08:34:11.579Z,4.20
2022-10-19T08:36:38.218Z,4.47
2022-10-19T08:39:06.232Z,3.83
2022-10-19T08:41:57.747Z,3.43
2022-10-19T08:45:20.276Z,3.93
2022-10-19T08:47:59.969Z,3.23
2022-10-19T08:50:47.128Z,3.23
2022-10-19T08:53:18.025Z,2.50
2022-10-19T08:56:07.529Z,2.90
2022-10-19T08:59:02.499Z,2.47
2022-10-19T09:01:55.401Z,2.20
2022-10-19T09:04:33.230Z,2.40
2022-10-19T09:07:07.848Z,1.80
2022-10-19T09:09:36.208Z,2.03
2022-10-19T09:12:05.110Z,2.20
2022-10-19T09:14:36.364Z,2.13
2022-10-19T09:17:09.441Z,1.90
2022-10-19T09:19:36.263Z,1.77
2022-10-19T09:22:14.959Z,2.50
2022-10-19T09:24:50.749Z,2.47
2022-10-19T09:27:51.237Z,2.17
2022-10-19T09:30:23.499Z,2.43
2022-10-19T09:32:59.286Z,2.40
2022-10-19T09:35:28.886Z,2.30
2022-10-19T09:37:55.920Z,2.07
2022-10-19T09:40:25.170Z,2.30
2022-10-19T09:42:57.147Z,1.90
2022-10-19T09:45:38.843Z,2.00
2022-10-19T09:48:17.416Z,1.83
2022-10-19T09:50:44.842Z,1.60
2022-10-19T09:53:21.336Z,1.77
2022-10-19T09:55:52.330Z,1.60
2022-10-19T09:58:19.908Z,2.20
2022-10-19T10:00:51.682Z,2.20
2022-10-19T10:03:30.402Z,2.10
2022-10-19T10:05:59.493Z,1.90
2022-10-19T10:08:29.452Z,2.60
2022-10-19T10:11:13.830Z,2.70
2022-10-19T10:13:48.080Z,3.60
2022-10-19T10:16:18.008Z,3.20
2022-10-19T10:18:51.686Z,3.20
2022-10-19T10:21:25.815Z,2.83
2022-10-19T10:24:07.170Z,3.27
2022-10-19T10:26:42.715Z,2.57
2022-10-19T10:29:35.580Z,2.97
2022-10-19T10:32:08.181Z,2.70
2022-10-19T10:34:46.340Z,3.00
2022-10-19T10:37:23.393Z,2.53
2022-10-19T10:39:55.164Z,2.40
2022-10-19T10:42:30.460Z,2.50
2022-10-19T10:44:57.483Z,3.17
2022-10-19T10:47:27.000Z,2.53
2022-10-19T10:50:01.080Z,2.87
2022-10-19T10:52:31.524Z,2.37
2022-10-19T10:55:03.470Z,3.10
2022-10-19T10:57:36.708Z,2.77
2022-10-19T11:00:26.330Z,3.43
2022-10-19T11:03:01.248Z,2.47
2022-10-19T11:05:37.617Z,3.30
2022-10-19T11:08:16.079Z,3.13
2022-10-19T11:10:47.354Z,2.70
2022-10-19T11:13:18.649Z,2.17
2022-10-19T11:16:05.042Z,2.20
2022-10-19T11:18:39.400Z,2.40
2022-10-19T11:21:26.480Z,2.23
2022-10-19T11:24:19.423Z,2.30
2022-10-19T11:27:14.312Z,2.10
2022-10-19T11:29:46.899Z,2.00
2022-10-19T11:32:27.658Z,2.07
2022-10-19T11:35:25.663Z,2.20
2022-10-19T11:38:20.140Z,2.43
2022-10-19T11:41:19.073Z,2.10
2022-10-19T11:44:05.324Z,2.43
2022-10-19T11:47:04.862Z,2.13
2022-10-19T11:49:50.900Z,2.13
2022-10-19T11:52:59.403Z,2.13
2022-10-19T11:55:38.178Z,2.10
2022-10-19T11:58:34.607Z,2.20
2022-10-19T12:01:18.188Z,2.30
2022-10-19T12:03:57.631Z,2.87
2022-10-19T12:06:50.835Z,1.93
2022-10-19T12:09:17.410Z,1.77
2022-10-19T12:11:56.249Z,1.80
2022-10-19T12:14:27.314Z,2.10
2022-10-19T12:16:59.036Z,1.80
2022-10-19T12:19:29.307Z,2.07
2022-10-19T12:22:00.619Z,1.93
2022-10-19T12:24:28.625Z,2.60
2022-10-19T12:26:55.578Z,2.20
2022-10-19T12:29:28.387Z,2.57
2022-10-19T12:31:56.429Z,2.80
2022-10-19T12:34:31.465Z,3.20
2022-10-19T12:37:05.363Z,2.37
2022-10-19T12:40:00.088Z,2.30
2022-10-19T12:42:41.964Z,2.37
2022-10-19T12:45:30.792Z,3.00
2022-10-19T12:48:12.507Z,3.30
2022-10-19T12:50:48.206Z,3.97
2022-10-19T12:53:30.643Z,4.50
2022-10-19T12:56:00.392Z,4.53
2022-10-19T12:58:29.911Z,4.20
2022-10-19T13:01:01.201Z,4.97
2022-10-19T13:03:33.088Z,4.67
2022-10-19T13:06:02.599Z,4.80
2022-10-19T13:08:38.807Z,5.03
2022-10-19T13:11:15.191Z,4.57
2022-10-19T13:13:55.166Z,5.30
2022-10-19T13:16:36.805Z,4.87
2022-10-19T13:19:12.467Z,4.53
2022-10-19T13:21:48.159Z,4.53
2022-10-19T13:24:20.649Z,4.50
2022-10-19T13:26:47.199Z,3.70
2022-10-19T13:29:39.822Z,4.17
2022-10-19T13:32:37.968Z,4.27
2022-10-19T13:35:23.487Z,3.30
2022-10-19T13:38:09.113Z,3.33
2022-10-19T13:40:56.895Z,3.40
2022-10-19T13:43:26.437Z,2.93
2022-10-19T13:46:06.445Z,2.73
2022-10-19T13:49:10.637Z,2.73
2022-10-19T13:51:56.018Z,2.53
2022-10-19T13:55:04.083Z,2.37
2022-10-19T13:57:51.508Z,2.93
2022-10-19T14:00:22.261Z,2.40
2022-10-19T14:03:20.578Z,2.47
2022-10-19T14:06:08.607Z,2.60
2022-10-19T14:08:44.936Z,2.03
2022-10-19T14:11:14.516Z,2.70
2022-10-19T14:13:41.169Z,2.60
2022-10-19T14:16:16.313Z,2.43
2022-10-19T14:18:42.911Z,2.47
2022-10-19T14:21:10.198Z,3.53
2022-10-19T14:23:41.371Z,4.23
2022-10-19T14:26:21.036Z,3.40
2022-10-19T14:28:53.092Z,3.50
2022-10-19T14:31:34.134Z,3.07
2022-10-19T14:34:03.355Z,3.93
2022-10-19T14:36:37.494Z,4.60
2022-10-19T14:39:04.654Z,8.00
2022-10-19T14:41:32.805Z,4.53
2022-10-19T14:44:02.718Z,2.83
2022-10-19T14:46:31.063Z,2.70
2022-10-19T14:49:02.527Z,2.83
2022-10-19T14:51:44.347Z,4.43
2022-10-19T14:54:31.051Z,3.40
2022-10-19T14:56:57.564Z,2.60
2022-10-19T14:59:31.909Z,2.63
2022-10-19T15:02:00.631Z,3.67
2022-10-19T15:04:34.263Z,3.47
2022-10-19T15:07:06.128Z,3.27
2022-10-19T15:09:47.854Z,2.90
2022-10-19T15:12:17.251Z,2.70
2022-10-19T15:14:44.499Z,2.63
2022-10-19T15:17:26.721Z,2.57
2022-10-19T15:19:55.611Z,2.30
2022-10-19T15:22:23.662Z,2.67
2022-10-19T15:25:08.619Z,2.83
2022-10-19T15:27:36.388Z,2.90
2022-10-19T15:30:18.172Z,3.03
2022-10-19T15:33:04.990Z,2.27
2022-10-19T15:35:33.607Z,2.20
2022-10-19T15:38:24.553Z,2.20
2022-10-19T15:40:56.944Z,2.03
2022-10-19T15:43:50.714Z,2.83
2022-10-19T15:49:38.253Z,2.33
2022-10-19T15:52:18.185Z,1.90
2022-10-19T15:54:48.726Z,1.63
2022-10-19T15:57:25.789Z,1.70
2022-10-19T15:59:52.971Z,2.03
2022-10-19T16:02:19.631Z,2.00
2022-10-19T16:04:46.295Z,2.00
2022-10-19T16:07:16.796Z,2.03
2022-10-19T16:09:43.381Z,2.20
2022-10-19T16:12:11.033Z,2.10
2022-10-19T16:14:37.546Z,2.27
2022-10-19T16:17:04.751Z,2.50
2022-10-19T16:19:31.374Z,2.63
2022-10-19T16:21:58.029Z,2.60
2022-10-19T16:24:24.691Z,2.37
2022-10-19T16:26:51.375Z,2.60
2022-10-19T16:29:17.982Z,3.07
2022-10-19T16:31:44.579Z,2.40
2022-10-19T16:34:11.138Z,2.70
2022-10-19T16:36:37.809Z,3.00
2022-10-19T16:39:04.939Z,2.83
2022-10-19T16:41:31.550Z,2.40
2022-10-19T16:43:58.218Z,3.00
2022-10-19T16:46:25.587Z,2.93
2022-10-19T16:48:52.701Z,2.77
2022-10-19T16:51:35.018Z,2.87
2022-10-19T16:54:02.650Z,2.83
2022-10-19T16:56:30.248Z,3.27
2022-10-19T16:59:02.270Z,3.30
2022-10-19T17:01:29.841Z,4.00
2022-10-19T17:03:56.860Z,3.60
2022-10-19T17:06:24.174Z,3.57
2022-10-19T17:11:38.896Z,3.30
2022-10-19T17:14:08.251Z,3.23
2022-10-19T17:16:36.275Z,3.60
2022-10-19T17:19:05.329Z,3.60
2022-10-19T17:21:34.243Z,4.37
2022-10-19T17:24:02.517Z,4.90
2022-10-19T17:26:39.293Z,3.87
2022-10-19T17:29:06.463Z,3.90
2022-10-19T17:31:33.142Z,4.63
2022-10-19T17:34:00.807Z,4.40
2022-10-19T17:36:33.048Z,4.97
2022-10-19T17:39:03.691Z,4.60
2022-10-19T17:41:31.080Z,4.77
2022-10-19T17:43:58.221Z,4.93
2022-10-19T17:46:30.842Z,6.03
2022-10-19T17:48:58.395Z,5.33
2022-10-19T17:51:28.401Z,5.93
2022-10-19T17:53:57.291Z,7.20
2022-10-19T17:56:24.843Z,6.60
2022-10-19T17:58:51.783Z,6.60
2022-10-19T18:01:19.650Z,6.47
2022-10-19T18:03:46.492Z,6.63
2022-10-19T18:06:16.221Z,5.93
2022-10-19T18:08:48.731Z,6.90
2022-10-19T18:11:17.987Z,6.27
2022-10-19T18:13:44.812Z,6.57
2022-10-19T18:16:17.527Z,6.77
2022-10-19T18:18:45.968Z,6.93
2022-10-19T18:21:13.662Z,6.70
2022-10-19T18:23:41.836Z,6.47
2022-10-19T18:26:10.779Z,6.67
2022-10-19T18:28:37.588Z,7.10
2022-10-19T18:31:19.513Z,6.43
2022-10-19T18:33:55.527Z,7.13
2022-10-19T18:36:22.132Z,6.57
2022-10-19T18:38:53.462Z,6.73
2022-10-19T18:41:20.825Z,6.20
2022-10-19T18:44:01.187Z,7.00
2022-10-19T18:46:27.809Z,7.43
2022-10-19T18:48:54.350Z,6.37
2022-10-19T18:51:22.304Z,7.10
2022-10-19T18:53:49.251Z,6.83
2022-10-19T18:56:18.513Z,7.97
2022-10-19T18:58:45.608Z,6.87
2022-10-19T19:01:13.186Z,6.73
2022-10-19T19:03:43.171Z,6.40
2022-10-19T19:06:12.551Z,6.70
2022-10-19T19:08:39.824Z,6.73
2022-10-19T19:11:12.990Z,6.40
2022-10-19T19:13:40.241Z,5.87
2022-10-19T19:16:07.630Z,5.73
2022-10-19T19:18:34.954Z,5.50
2022-10-19T19:21:02.354Z,5.53
2022-10-19T19:23:29.526Z,5.00
2022-10-19T19:25:56.724Z,4.33
2022-10-19T19:28:23.282Z,4.63
2022-10-19T19:30:49.871Z,4.70
2022-10-19T19:33:16.559Z,4.63
2022-10-19T19:35:47.065Z,4.40
2022-10-19T19:38:14.620Z,4.83
2022-10-19T19:40:42.684Z,5.03
2022-10-19T19:43:10.183Z,4.67
2022-10-19T19:45:37.595Z,4.27
2022-10-19T19:48:05.633Z,4.67
2022-10-19T19:50:33.154Z,4.50
2022-10-19T19:52:59.987Z,4.83
2022-10-19T19:55:27.660Z,4.60
2022-10-19T19:57:54.791Z,4.20
2022-10-19T20:00:22.931Z,4.20
2022-10-19T20:02:55.173Z,4.40
2022-10-19T20:05:22.474Z,4.50
2022-10-19T20:07:49.489Z,4.17
2022-10-19T20:10:16.217Z,4.40
2022-10-19T20:12:43.724Z,4.57
2022-10-19T20:15:11.637Z,4.60
2022-10-19T20:17:38.688Z,4.90
2022-10-19T20:20:06.395Z,3.90
2022-10-19T20:22:33.019Z,3.93
2022-10-19T20:24:59.687Z,4.30
2022-10-19T20:27:26.371Z,3.50
2022-10-19T20:29:58.366Z,4.33
2022-10-19T20:32:26.157Z,4.03
2022-10-19T20:34:52.907Z,3.77
2022-10-19T20:37:20.379Z,4.20
2022-10-19T20:39:47.614Z,4.00
2022-10-19T20:42:15.084Z,4.23
2022-10-19T20:44:41.664Z,4.60
2022-10-19T20:47:08.309Z,3.87
2022-10-19T20:49:34.963Z,4.30
2022-10-19T20:52:01.605Z,3.90
2022-10-19T20:54:28.364Z,3.93
2022-10-19T20:56:54.999Z,4.60
2022-10-19T20:59:25.199Z,3.73
2022-10-19T21:01:53.117Z,4.03
2022-10-19T21:04:20.010Z,3.70
2022-10-19T21:06:49.710Z,3.53
2022-10-19T21:09:18.654Z,3.40
2022-10-19T21:11:47.223Z,3.40
2022-10-19T21:14:16.087Z,3.90
2022-10-19T21:16:43.291Z,3.63
2022-10-19T21:19:15.518Z,3.67
2022-10-19T21:21:44.443Z,3.37
2022-10-19T21:24:16.876Z,3.40
2022-10-19T21:26:43.932Z,3.67
2022-10-19T21:29:11.606Z,3.77
2022-10-19T21:31:42.155Z,3.13
2022-10-19T21:34:16.937Z,3.40
2022-10-19T21:36:43.578Z,3.50
2022-10-19T21:39:10.235Z,3.43
2022-10-19T21:41:36.813Z,3.60
2022-10-19T21:44:03.644Z,4.00
2022-10-19T21:46:30.354Z,3.77
2022-10-19T21:48:56.981Z,4.07
2022-10-19T21:51:35.910Z,3.60
2022-10-19T21:54:06.842Z,3.60
2022-10-19T21:56:34.010Z,4.10
2022-10-19T21:59:00.561Z,4.07
2022-10-19T22:01:29.359Z,3.83
2022-10-19T22:03:57.570Z,5.33
2022-10-19T22:06:25.460Z,4.43
2022-10-19T22:08:52.370Z,5.40
2022-10-19T22:11:19.524Z,4.37
2022-10-19T22:13:46.444Z,4.40
2022-10-19T22:16:18.016Z,4.27
2022-10-19T22:18:45.218Z,4.43
2022-10-19T22:21:15.516Z,4.80
2022-10-19T22:23:42.893Z,4.30
2022-10-19T22:26:13.511Z,5.00
2022-10-19T22:28:40.175Z,5.07
2022-10-19T22:31:06.791Z,4.97
2022-10-19T22:33:34.863Z,4.80
2022-10-19T22:36:02.525Z,4.67
2022-10-19T22:38:29.496Z,4.93
2022-10-19T22:40:56.089Z,4.80
2022-10-19T22:43:22.662Z,4.30
2022-10-19T22:45:50.177Z,5.23
2022-10-19T22:48:18.139Z,5.40
2022-10-19T22:50:45.241Z,5.30
2022-10-19T22:53:12.502Z,5.63
2022-10-19T22:55:39.213Z,5.20
2022-10-19T22:58:06.856Z,5.70
2022-10-19T23:00:33.564Z,5.03
2022-10-19T23:03:00.197Z,6.43
2022-10-19T23:05:26.848Z,6.17
2022-10-19T23:07:53.443Z,5.53
2022-10-19T23:10:20.124Z,6.67
2022-10-19T23:12:53.337Z,5.83
2022-10-19T23:15:20.974Z,6.77
2022-10-19T23:17:47.648Z,6.53
2022-10-19T23:20:14.717Z,6.60
2022-10-19T23:22:41.278Z,6.70
2022-10-19T23:25:08.522Z,6.60
2022-10-19T23:27:35.457Z,6.73
2022-10-19T23:30:03.502Z,5.60
2022-10-19T23:32:30.168Z,7.10
2022-10-19T23:34:56.920Z,6.60
2022-10-19T23:37:23.550Z,6.17
2022-10-19T23:39:50.083Z,7.73
2022-10-19T23:42:16.665Z,6.60
2022-10-19T23:44:43.256Z,7.80
2022-10-19T23:47:09.813Z,8.03
2022-10-19T23:49:36.389Z,7.90
2022-10-19T23:52:02.983Z,8.03
2022-10-19T23:54:29.638Z,8.77
2022-10-19T23:56:56.223Z,9.00
2022-10-19T23:59:22.909Z,8.30
